createdAt,value
2022-08-02T00:02:45.774Z,69.62
2022-08-02T00:05:31.559Z,69.68
2022-08-02T00:08:17.112Z,69.94
2022-08-02T00:11:03.102Z,69.83
2022-08-02T00:13:50.686Z,69.97
2022-08-02T00:16:37.456Z,68.24
2022-08-02T00:19:29.211Z,66.89
2022-08-02T00:22:15.400Z,65.84
2022-08-02T00:25:00.706Z,66.00
2022-08-02T00:27:45.855Z,65.66
2022-08-02T00:30:30.964Z,65.83
2022-08-02T00:33:16.628Z,65.93
2022-08-02T00:36:21.874Z,65.65
2022-08-02T00:39:06.994Z,65.29
2022-08-02T00:42:14.836Z,64.24
2022-08-02T00:45:00.475Z,63.62
2022-08-02T00:47:45.663Z,63.38
2022-08-02T00:50:31.884Z,63.44
2022-08-02T00:53:17.295Z,63.96
2022-08-02T00:56:02.781Z,64.45
2022-08-02T00:58:48.755Z,64.00
2022-08-02T01:01:56.991Z,63.26
2022-08-02T01:04:43.116Z,63.35
2022-08-02T01:07:28.658Z,62.90
2022-08-02T01:10:14.288Z,62.79
2022-08-02T01:12:59.573Z,62.63
2022-08-02T01:15:50.174Z,62.41
2022-08-02T01:18:43.563Z,62.11
2022-08-02T01:21:41.007Z,61.95
2022-08-02T01:25:15.088Z,62.02
2022-08-02T01:28:33.413Z,61.97
2022-08-02T01:31:36.241Z,62.00
2022-08-02T01:34:32.476Z,61.48
2022-08-02T01:37:42.968Z,61.61
2022-08-02T01:40:34.164Z,61.61
2022-08-02T01:43:21.831Z,61.53
2022-08-02T01:46:08.095Z,61.43
2022-08-02T01:48:56.640Z,61.21
2022-08-02T01:52:01.994Z,61.33
2022-08-02T01:55:04.386Z,61.38
2022-08-02T01:57:52.356Z,61.17
2022-08-02T02:00:40.679Z,61.17
2022-08-02T02:03:27.916Z,60.99
2022-08-02T02:06:15.101Z,61.29
2022-08-02T02:09:00.884Z,61.14
2022-08-02T02:12:06.215Z,61.32
2022-08-02T02:14:54.875Z,61.19
2022-08-02T02:18:10.722Z,61.13
2022-08-02T02:20:49.484Z,61.23
2022-08-02T02:23:35.594Z,60.73
2022-08-02T02:26:31.177Z,60.62
2022-08-02T02:29:20.356Z,60.34
2022-08-02T02:32:06.416Z,59.85
2022-08-02T02:34:53.180Z,59.89
2022-08-02T02:37:39.460Z,58.78
2022-08-02T02:40:27.437Z,58.10
2022-08-02T02:43:14.436Z,57.89
2022-08-02T02:46:01.770Z,57.87
2022-08-02T02:48:49.458Z,58.36
2022-08-02T02:51:35.368Z,58.59
2022-08-02T02:54:33.296Z,58.70
2022-08-02T02:57:20.747Z,56.71
2022-08-02T03:00:09.878Z,55.55
2022-08-02T03:02:55.627Z,55.54
2022-08-02T03:05:40.985Z,55.74
2022-08-02T03:08:26.286Z,56.03
2022-08-02T03:11:12.755Z,55.61
2022-08-02T03:14:00.222Z,55.33
2022-08-02T03:16:48.380Z,55.38
2022-08-02T03:19:33.614Z,55.18
2022-08-02T03:22:18.908Z,54.24
2022-08-02T03:25:04.553Z,54.55
2022-08-02T03:27:50.808Z,55.25
2022-08-02T03:30:36.125Z,56.47
2022-08-02T03:33:23.187Z,56.98
2022-08-02T03:36:13.597Z,57.70
2022-08-02T03:39:01.656Z,59.88
2022-08-02T03:41:49.472Z,61.19
2022-08-02T03:44:35.467Z,63.50
2022-08-02T03:47:23.157Z,65.20
2022-08-02T03:50:12.700Z,65.73
2022-08-02T03:52:59.262Z,65.73
2022-08-02T03:55:45.595Z,66.13
2022-08-02T03:58:31.396Z,66.13
2022-08-02T04:01:16.903Z,65.89
2022-08-02T04:04:02.341Z,66.15
2022-08-02T04:06:47.864Z,66.69
2022-08-02T04:09:33.215Z,67.62
2022-08-02T04:12:18.511Z,67.42
2022-08-02T04:15:06.081Z,67.30
2022-08-02T04:17:58.909Z,67.59
2022-08-02T04:20:45.872Z,67.73
2022-08-02T04:23:33.198Z,67.63
2022-08-02T04:26:23.924Z,67.66
2022-08-02T04:29:15.082Z,67.83
2022-08-02T04:32:01.172Z,67.70
2022-08-02T04:35:11.262Z,68.25
2022-08-02T04:38:05.682Z,68.90
2022-08-02T04:40:56.141Z,70.06
2022-08-02T04:43:41.431Z,69.88
2022-08-02T04:46:26.730Z,70.16
2022-08-02T04:49:16.911Z,69.82
2022-08-02T04:52:02.516Z,69.22
2022-08-02T04:54:47.739Z,68.71
2022-08-02T04:57:52.916Z,68.28
2022-08-02T05:00:38.667Z,68.87
2022-08-02T05:03:24.181Z,68.58
2022-08-02T05:06:19.355Z,68.53
2022-08-02T05:09:04.961Z,68.51
2022-08-02T05:11:55.055Z,68.35
2022-08-02T05:14:40.727Z,67.85
2022-08-02T05:17:25.957Z,67.51
2022-08-02T05:20:13.456Z,66.46
2022-08-02T05:22:58.903Z,65.99
2022-08-02T05:25:44.197Z,65.63
2022-08-02T05:28:29.580Z,64.99
2022-08-02T05:31:17.368Z,64.42
2022-08-02T05:34:02.518Z,63.13
2022-08-02T05:36:47.609Z,62.67
2022-08-02T05:39:33.580Z,62.35
2022-08-02T05:42:19.049Z,61.25
2022-08-02T05:45:05.173Z,56.48
2022-08-02T05:47:51.414Z,55.67
2022-08-02T05:50:39.756Z,54.48
2022-08-02T05:53:33.608Z,54.21
2022-08-02T05:56:25.183Z,53.08
2022-08-02T05:59:44.427Z,52.68
2022-08-02T06:02:36.251Z,52.38
2022-08-02T06:05:22.711Z,52.66
2022-08-02T06:08:11.860Z,52.69
2022-08-02T06:11:02.418Z,52.57
2022-08-02T06:13:47.756Z,53.22
2022-08-02T06:16:42.142Z,52.98
2022-08-02T06:19:28.349Z,52.97
2022-08-02T06:22:34.830Z,52.90
2022-08-02T06:25:50.997Z,53.03
2022-08-02T06:28:28.980Z,53.61
2022-08-02T06:31:15.495Z,53.42
2022-08-02T06:34:00.902Z,52.39
2022-08-02T06:37:13.932Z,50.67
2022-08-02T06:40:06.890Z,50.91
2022-08-02T06:43:17.730Z,50.90
2022-08-02T06:46:43.015Z,49.71
2022-08-02T06:49:08.784Z,49.40
2022-08-02T06:51:54.443Z,49.02
2022-08-02T06:54:42.131Z,48.62
2022-08-02T06:57:28.626Z,48.47
2022-08-02T07:00:14.329Z,48.23
2022-08-02T07:03:00.068Z,48.15
2022-08-02T07:05:48.431Z,48.12
2022-08-02T07:08:35.856Z,47.61
2022-08-02T07:11:21.384Z,46.58
2022-08-02T07:14:07.301Z,47.36
2022-08-02T07:16:53.447Z,47.52
2022-08-02T07:19:38.801Z,47.42
2022-08-02T07:22:26.810Z,47.26
2022-08-02T07:25:13.088Z,47.06
2022-08-02T07:27:58.517Z,46.75
2022-08-02T07:30:46.246Z,47.14
2022-08-02T07:33:37.977Z,46.32
2022-08-02T07:36:25.504Z,45.65
2022-08-02T07:39:10.986Z,45.37
2022-08-02T07:41:57.161Z,45.14
2022-08-02T07:44:44.326Z,45.35
2022-08-02T07:47:32.208Z,44.96
2022-08-02T07:50:19.551Z,44.78
2022-08-02T07:53:05.145Z,45.47
2022-08-02T07:55:50.369Z,44.47
2022-08-02T07:58:36.148Z,43.86
2022-08-02T08:01:21.341Z,44.01
2022-08-02T08:04:06.971Z,43.89
2022-08-02T08:06:52.727Z,43.79
2022-08-02T08:09:42.177Z,43.52
2022-08-02T08:12:28.373Z,44.08
2022-08-02T08:15:13.723Z,43.91
2022-08-02T08:17:59.118Z,43.70
2022-08-02T08:20:44.507Z,43.37
2022-08-02T08:23:29.915Z,43.06
2022-08-02T08:26:15.844Z,43.47
2022-08-02T08:29:01.917Z,43.24
2022-08-02T08:31:47.451Z,43.12
2022-08-02T08:34:34.822Z,43.23
2022-08-02T08:37:20.431Z,42.75
2022-08-02T08:40:07.314Z,42.79
2022-08-02T08:42:53.484Z,43.01
2022-08-02T08:45:38.818Z,43.18
2022-08-02T08:48:30.932Z,43.15
2022-08-02T08:51:21.776Z,42.59
2022-08-02T08:54:11.715Z,42.65
2022-08-02T08:56:58.645Z,41.87
2022-08-02T08:59:45.617Z,42.38
2022-08-02T09:02:34.188Z,42.35
2022-08-02T09:05:19.618Z,42.61
2022-08-02T09:08:06.010Z,42.55
2022-08-02T09:10:51.276Z,42.88
2022-08-02T09:13:44.989Z,43.09
2022-08-02T09:16:34.178Z,42.35
2022-08-02T09:19:27.072Z,41.84
2022-08-02T09:22:15.413Z,40.69
2022-08-02T09:25:01.635Z,41.18
2022-08-02T09:27:49.122Z,41.30
2022-08-02T09:30:43.181Z,39.93
2022-08-02T09:33:28.991Z,40.18
2022-08-02T09:36:17.035Z,40.45
2022-08-02T09:39:05.527Z,39.59
2022-08-02T09:41:50.829Z,39.36
2022-08-02T09:44:36.545Z,39.76
2022-08-02T09:47:23.039Z,40.06
2022-08-02T09:50:13.315Z,39.57
2022-08-02T09:53:02.888Z,38.90
2022-08-02T09:55:56.401Z,38.52
2022-08-02T09:58:42.389Z,38.50
2022-08-02T10:01:37.635Z,38.12
2022-08-02T10:04:26.897Z,38.90
2022-08-02T10:07:12.807Z,38.56
2022-08-02T10:09:58.277Z,38.48
2022-08-02T10:12:43.647Z,38.66
2022-08-02T10:15:29.154Z,38.66
2022-08-02T10:18:36.977Z,38.58
2022-08-02T10:21:29.635Z,37.60
2022-08-02T10:24:18.606Z,37.93
2022-08-02T10:27:06.318Z,37.78
2022-08-02T10:29:56.136Z,37.14
2022-08-02T10:32:45.820Z,36.88
2022-08-02T10:35:33.769Z,36.39
2022-08-02T10:38:19.730Z,35.98
2022-08-02T10:41:05.833Z,36.43
2022-08-02T10:43:51.081Z,36.66
2022-08-02T10:46:37.008Z,36.28
2022-08-02T10:49:39.961Z,37.24
2022-08-02T10:52:26.528Z,36.55
2022-08-02T10:55:27.281Z,36.80
2022-08-02T10:58:29.549Z,37.38
2022-08-02T11:01:38.662Z,37.48
2022-08-02T11:04:25.639Z,36.89
2022-08-02T11:07:18.395Z,37.48
2022-08-02T11:10:31.924Z,36.83
2022-08-02T11:13:19.912Z,36.16
2022-08-02T11:16:11.326Z,36.12
2022-08-02T11:18:56.841Z,36.27
2022-08-02T11:22:01.445Z,37.18
2022-08-02T11:24:47.290Z,36.06
2022-08-02T11:27:32.903Z,35.47
2022-08-02T11:30:19.239Z,36.03
2022-08-02T11:33:11.695Z,36.20
2022-08-02T11:36:02.412Z,36.47
2022-08-02T11:38:47.658Z,36.88
2022-08-02T11:41:45.993Z,37.16
2022-08-02T11:44:40.412Z,36.01
2022-08-02T11:47:25.595Z,36.05
2022-08-02T11:50:11.164Z,36.31
2022-08-02T11:52:57.192Z,36.58
2022-08-02T11:55:43.161Z,36.46
2022-08-02T11:58:29.013Z,35.63
2022-08-02T12:01:14.510Z,36.18
2022-08-02T12:04:01.766Z,35.16
2022-08-02T12:06:56.121Z,35.53
2022-08-02T12:09:42.537Z,35.90
2022-08-02T12:12:28.536Z,36.01
2022-08-02T12:15:14.858Z,36.27
2022-08-02T12:18:20.655Z,36.70
2022-08-02T12:21:26.431Z,36.31
2022-08-02T12:24:11.914Z,35.81
2022-08-02T12:26:57.241Z,35.81
2022-08-02T12:29:55.909Z,35.99
2022-08-02T12:32:45.295Z,35.98
2022-08-02T12:35:30.826Z,35.86
2022-08-02T12:38:16.707Z,35.88
2022-08-02T12:41:31.323Z,35.93
2022-08-02T12:44:19.680Z,36.74
2022-08-02T12:47:11.958Z,36.70
2022-08-02T12:50:37.812Z,35.67
2022-08-02T12:53:32.773Z,35.35
2022-08-02T12:56:33.621Z,36.39
2022-08-02T12:59:40.305Z,36.73
2022-08-02T13:02:25.883Z,36.64
2022-08-02T13:05:11.201Z,35.91
2022-08-02T13:07:59.053Z,35.58
2022-08-02T13:10:44.559Z,35.49
2022-08-02T13:13:29.994Z,35.21
2022-08-02T13:16:17.161Z,35.29
2022-08-02T13:19:02.749Z,34.96
2022-08-02T13:22:11.542Z,34.11
2022-08-02T13:24:56.493Z,33.33
2022-08-02T13:27:42.426Z,33.59
2022-08-02T13:30:27.688Z,34.53
2022-08-02T13:33:13.338Z,33.95
2022-08-02T13:35:59.329Z,33.69
2022-08-02T13:38:44.706Z,34.05
2022-08-02T13:41:31.744Z,34.28
2022-08-02T13:44:17.452Z,34.95
2022-08-02T13:47:03.253Z,35.25
2022-08-02T13:49:53.370Z,35.02
2022-08-02T13:52:41.990Z,34.27
2022-08-02T13:55:28.393Z,34.31
2022-08-02T13:58:17.586Z,34.75
2022-08-02T14:01:03.014Z,34.56
2022-08-02T14:04:08.480Z,32.89
2022-08-02T14:06:58.788Z,33.19
2022-08-02T14:09:45.019Z,33.93
2022-08-02T14:12:33.329Z,32.98
2022-08-02T14:15:24.717Z,32.80
2022-08-02T14:18:16.712Z,33.62
2022-08-02T14:21:02.381Z,32.79
2022-08-02T14:23:53.774Z,32.71
2022-08-02T14:27:04.588Z,32.98
2022-08-02T14:29:51.890Z,32.92
2022-08-02T14:32:41.057Z,32.69
2022-08-02T14:35:27.054Z,32.95
2022-08-02T14:38:22.161Z,33.57
2022-08-02T14:41:32.203Z,32.80
2022-08-02T14:44:18.534Z,32.61
2022-08-02T14:47:05.865Z,32.84
2022-08-02T14:49:54.024Z,32.75
2022-08-02T14:52:42.371Z,32.72
2022-08-02T14:55:30.556Z,32.55
2022-08-02T14:58:16.080Z,31.91
2022-08-02T15:01:01.534Z,32.13
2022-08-02T15:03:47.595Z,32.32
2022-08-02T15:06:33.031Z,32.42
2022-08-02T15:09:18.725Z,31.54
2022-08-02T15:12:05.515Z,32.14
2022-08-02T15:14:52.236Z,32.15
2022-08-02T15:17:37.687Z,32.35
2022-08-02T15:20:25.587Z,32.13
2022-08-02T15:23:11.182Z,32.56
2022-08-02T15:25:58.230Z,32.31
2022-08-02T15:28:43.668Z,31.29
2022-08-02T15:31:33.233Z,31.12
2022-08-02T15:34:19.028Z,31.50
2022-08-02T15:37:04.232Z,31.19
2022-08-02T15:39:49.482Z,31.27
2022-08-02T15:42:34.577Z,31.45
2022-08-02T15:45:20.018Z,31.33
2022-08-02T15:48:05.940Z,31.28
2022-08-02T15:50:51.223Z,32.01
2022-08-02T15:53:36.575Z,31.98
2022-08-02T15:56:24.303Z,31.58
2022-08-02T15:59:09.767Z,32.09
2022-08-02T16:01:55.337Z,31.84
2022-08-02T16:04:43.140Z,31.77
2022-08-02T16:07:28.270Z,32.36
2022-08-02T16:10:15.422Z,32.64
2022-08-02T16:13:19.496Z,31.84
2022-08-02T16:16:04.965Z,32.69
2022-08-02T16:18:50.702Z,32.08
2022-08-02T16:21:35.813Z,32.41
2022-08-02T16:24:21.356Z,33.08
2022-08-02T16:27:08.383Z,33.14
2022-08-02T16:29:54.495Z,32.53
2022-08-02T16:32:39.737Z,32.54
2022-08-02T16:35:25.432Z,32.73
2022-08-02T16:38:12.766Z,32.46
2022-08-02T16:41:01.559Z,32.42
2022-08-02T16:43:46.987Z,32.67
2022-08-02T16:46:32.306Z,32.53
2022-08-02T16:50:06.796Z,33.11
2022-08-02T16:52:23.380Z,37.85
2022-08-02T16:55:11.222Z,37.03
2022-08-02T16:57:57.903Z,35.26
2022-08-02T17:00:44.940Z,33.71
2022-08-02T17:06:40.122Z,42.40
2022-08-02T17:10:04.554Z,39.64
2022-08-02T17:12:40.144Z,36.54
2022-08-02T17:16:07.539Z,39.82
2022-08-02T17:18:34.425Z,35.50
2022-08-02T17:21:27.944Z,35.56
2022-08-02T17:24:13.408Z,39.10
2022-08-02T17:26:58.593Z,38.73
2022-08-02T17:29:43.975Z,36.23
2022-08-02T17:32:33.448Z,39.35
2022-08-02T17:35:18.465Z,38.31
2022-08-02T17:38:05.385Z,40.59
2022-08-02T17:40:50.972Z,40.12
2022-08-02T17:43:39.544Z,37.16
2022-08-02T17:46:26.749Z,40.11
2022-08-02T17:49:16.741Z,39.25
2022-08-02T17:52:47.754Z,38.46
2022-08-02T17:55:10.640Z,39.02
2022-08-02T17:57:58.514Z,39.93
2022-08-02T18:00:44.944Z,40.26
2022-08-02T18:03:30.452Z,38.80
2022-08-02T18:06:16.443Z,39.55
2022-08-02T18:09:04.134Z,40.76
2022-08-02T18:11:53.455Z,40.27
2022-08-02T18:14:46.174Z,39.69
2022-08-02T18:17:34.432Z,40.92
2022-08-02T18:20:20.654Z,37.46
2022-08-02T18:23:07.496Z,37.27
2022-08-02T18:25:56.825Z,37.67
2022-08-02T18:28:42.449Z,40.85
2022-08-02T18:31:27.978Z,40.69
2022-08-02T18:34:13.465Z,41.01
2022-08-02T18:36:58.860Z,40.59
2022-08-02T18:39:51.411Z,41.38
2022-08-02T18:42:37.474Z,41.76
2022-08-02T18:45:23.644Z,41.75
2022-08-02T18:48:08.942Z,41.87
2022-08-02T18:50:54.301Z,41.71
2022-08-02T18:53:42.786Z,41.97
2022-08-02T18:56:28.691Z,42.21
2022-08-02T18:59:19.130Z,42.29
2022-08-02T19:02:04.745Z,42.22
2022-08-02T19:04:50.034Z,42.20
2022-08-02T19:10:49.342Z,42.95
2022-08-02T19:13:40.743Z,42.89
2022-08-02T19:19:33.669Z,43.05
2022-08-02T19:22:20.338Z,43.10
2022-08-02T19:25:06.624Z,42.95
2022-08-02T19:28:02.877Z,42.98
2022-08-02T19:30:49.273Z,43.32
2022-08-02T19:34:06.304Z,43.08
2022-08-02T19:36:43.414Z,43.28
2022-08-02T19:39:29.431Z,43.31
2022-08-02T19:42:16.337Z,43.06
2022-08-02T19:45:02.543Z,43.11
2022-08-02T19:47:54.398Z,42.99
2022-08-02T19:50:41.522Z,43.43
2022-08-02T19:53:46.411Z,43.49
2022-08-02T19:56:34.314Z,43.44
2022-08-02T19:59:20.252Z,43.38
2022-08-02T20:02:05.968Z,43.44
2022-08-02T20:04:52.835Z,43.58
2022-08-02T20:07:57.309Z,43.77
2022-08-02T20:10:45.906Z,43.66
2022-08-02T20:13:34.665Z,44.16
2022-08-02T20:16:34.617Z,44.08
2022-08-02T20:19:20.391Z,43.92
2022-08-02T20:22:07.874Z,43.89
2022-08-02T20:24:53.605Z,43.95
2022-08-02T20:27:39.027Z,43.88
2022-08-02T20:30:39.818Z,44.56
2022-08-02T20:33:25.274Z,44.50
2022-08-02T20:36:10.755Z,44.20
2022-08-02T20:38:56.303Z,43.80
2022-08-02T20:41:46.392Z,43.76
2022-08-02T20:44:34.476Z,43.81
2022-08-02T20:47:20.138Z,43.65
2022-08-02T20:50:33.075Z,43.59
2022-08-02T20:53:23.616Z,43.63
2022-08-02T20:56:14.039Z,43.86
2022-08-02T20:59:04.142Z,43.90
2022-08-02T21:02:01.461Z,43.31
2022-08-02T21:04:46.976Z,44.17
2022-08-02T21:07:32.283Z,44.00
2022-08-02T21:10:17.818Z,44.04
2022-08-02T21:13:18.948Z,43.24
2022-08-02T21:16:07.822Z,43.72
2022-08-02T21:19:00.281Z,44.16
2022-08-02T21:21:46.116Z,44.37
2022-08-02T21:24:31.615Z,43.86
2022-08-02T21:27:53.051Z,44.22
2022-08-02T21:30:24.403Z,44.59
2022-08-02T21:33:17.806Z,44.63
2022-08-02T21:36:03.999Z,45.56
2022-08-02T21:38:49.530Z,45.29
2022-08-02T21:41:46.382Z,44.86
2022-08-02T21:44:32.656Z,44.94
2022-08-02T21:47:27.567Z,44.92
2022-08-02T21:50:16.471Z,44.88
2022-08-02T21:53:01.873Z,44.39
2022-08-02T21:56:00.894Z,44.50
2022-08-02T21:58:47.824Z,44.56
2022-08-02T22:01:35.387Z,44.04
2022-08-02T22:04:21.639Z,44.58
2022-08-02T22:07:07.459Z,43.71
2022-08-02T22:09:54.049Z,45.00
2022-08-02T22:12:40.965Z,44.85
2022-08-02T22:15:36.045Z,44.49
2022-08-02T22:18:29.340Z,44.82
2022-08-02T22:21:16.951Z,44.53
2022-08-02T22:24:02.125Z,44.98
2022-08-02T22:26:47.856Z,45.09
2022-08-02T22:29:33.616Z,45.25
2022-08-02T22:32:40.338Z,44.99
2022-08-02T22:35:26.431Z,45.19
2022-08-02T22:38:18.411Z,45.13
2022-08-02T22:41:03.865Z,44.06
2022-08-02T22:43:49.511Z,43.98
2022-08-02T22:46:35.238Z,43.95
2022-08-02T22:49:38.620Z,43.99
2022-08-02T22:52:27.929Z,44.10
2022-08-02T22:55:14.428Z,44.28
2022-08-02T22:58:00.277Z,44.58
2022-08-02T22:58:36.522Z,38.21
2022-08-02T22:58:47.001Z,42.40
2022-08-02T22:58:47.334Z,42.68
2022-08-02T23:00:45.793Z,44.61
2022-08-02T23:03:31.508Z,44.82
2022-08-02T23:06:22.696Z,45.15
2022-08-02T23:09:10.112Z,45.26
2022-08-02T23:11:55.943Z,45.61
2022-08-02T23:14:41.977Z,45.42
2022-08-02T23:17:45.682Z,45.54
2022-08-02T23:20:30.957Z,45.67
2022-08-02T23:23:16.056Z,45.63
2022-08-02T23:26:01.279Z,45.58
2022-08-02T23:28:46.628Z,45.44
2022-08-02T23:31:38.160Z,45.64
2022-08-02T23:34:23.805Z,45.47
2022-08-02T23:37:09.262Z,45.59
2022-08-02T23:39:55.153Z,45.94
2022-08-02T23:42:40.279Z,45.78
2022-08-02T23:45:25.583Z,46.01
2022-08-02T23:48:20.161Z,45.79
2022-08-02T23:51:05.551Z,45.94
2022-08-02T23:53:50.900Z,45.82
2022-08-02T23:56:37.283Z,46.05
2022-08-02T23:59:22.658Z,45.78
